sensor_id;sensor_type;location;lat;lon;timestamp;P1;durP1;ratioP1;P2;durP2;ratioP2
3801;SDS011;1916;51.798;12.246;2023-06-22T00:00:31;13.30;;;12.00;;
3801;SDS011;1916;51.798;12.246;2023-06-22T00:02:33;15.63;;;13.80;;
3801;SDS011;1916;51.798;12.246;2023-06-22T00:04:35;13.87;;;12.47;;
3801;SDS011;1916;51.798;12.246;2023-06-22T00:06:37;16.43;;;12.57;;
3801;SDS011;1916;51.798;12.246;2023-06-22T00:08:40;14.20;;;12.70;;
3801;SDS011;1916;51.798;12.246;2023-06-22T00:10:42;14.47;;;13.07;;
3801;SDS011;1916;51.798;12.246;2023-06-22T00:12:45;15.23;;;13.60;;
3801;SDS011;1916;51.798;12.246;2023-06-22T00:14:47;13.67;;;12.37;;
3801;SDS011;1916;51.798;12.246;2023-06-22T00:16:49;14.40;;;12.53;;
3801;SDS011;1916;51.798;12.246;2023-06-22T00:18:56;14.63;;;12.93;;
3801;SDS011;1916;51.798;12.246;2023-06-22T00:21:01;15.13;;;12.40;;
3801;SDS011;1916;51.798;12.246;2023-06-22T00:23:04;14.43;;;12.70;;
3801;SDS011;1916;51.798;12.246;2023-06-22T00:25:11;18.63;;;13.77;;
3801;SDS011;1916;51.798;12.246;2023-06-22T00:27:13;15.60;;;12.40;;
3801;SDS011;1916;51.798;12.246;2023-06-22T00:29:15;14.07;;;12.67;;
3801;SDS011;1916;51.798;12.246;2023-06-22T00:31:17;13.57;;;12.27;;
3801;SDS011;1916;51.798;12.246;2023-06-22T00:33:20;14.53;;;12.80;;
3801;SDS011;1916;51.798;12.246;2023-06-22T00:35:22;13.73;;;12.33;;
3801;SDS011;1916;51.798;12.246;2023-06-22T00:37:24;13.70;;;12.33;;
3801;SDS011;1916;51.798;12.246;2023-06-22T00:39:27;12.37;;;11.27;;
3801;SDS011;1916;51.798;12.246;2023-06-22T00:41:29;13.97;;;12.67;;
3801;SDS011;1916;51.798;12.246;2023-06-22T00:43:32;13.80;;;12.50;;
3801;SDS011;1916;51.798;12.246;2023-06-22T00:45:37;13.83;;;12.53;;
3801;SDS011;1916;51.798;12.246;2023-06-22T00:47:40;13.77;;;12.33;;
3801;SDS011;1916;51.798;12.246;2023-06-22T00:49:46;14.03;;;12.63;;
3801;SDS011;1916;51.798;12.246;2023-06-22T00:51:52;13.80;;;12.50;;
3801;SDS011;1916;51.798;12.246;2023-06-22T00:53:54;14.57;;;12.60;;
3801;SDS011;1916;51.798;12.246;2023-06-22T00:55:57;14.07;;;12.50;;
3801;SDS011;1916;51.798;12.246;2023-06-22T00:58:02;13.87;;;12.57;;
3801;SDS011;1916;51.798;12.246;2023-06-22T01:00:07;14.17;;;12.67;;
3801;SDS011;1916;51.798;12.246;2023-06-22T01:02:11;12.93;;;11.63;;
3801;SDS011;1916;51.798;12.246;2023-06-22T01:04:14;15.77;;;12.87;;
3801;SDS011;1916;51.798;12.246;2023-06-22T01:06:19;15.07;;;13.30;;
3801;SDS011;1916;51.798;12.246;2023-06-22T01:09:12;18.47;;;11.90;;
3801;SDS011;1916;51.798;12.246;2023-06-22T01:13:18;13.33;;;12.03;;
3801;SDS011;1916;51.798;12.246;2023-06-22T01:15:32;15.10;;;13.60;;
3801;SDS011;1916;51.798;12.246;2023-06-22T01:17:38;14.90;;;13.40;;
3801;SDS011;1916;51.798;12.246;2023-06-22T01:19:45;14.20;;;12.80;;
3801;SDS011;1916;51.798;12.246;2023-06-22T01:21:49;14.50;;;12.97;;
3801;SDS011;1916;51.798;12.246;2023-06-22T01:28:58;14.10;;;12.80;;
3801;SDS011;1916;51.798;12.246;2023-06-22T01:31:02;13.93;;;12.53;;
3801;SDS011;1916;51.798;12.246;2023-06-22T01:33:10;15.30;;;13.80;;
3801;SDS011;1916;51.798;12.246;2023-06-22T01:35:13;14.63;;;12.83;;
3801;SDS011;1916;51.798;12.246;2023-06-22T01:37:16;14.53;;;13.13;;
3801;SDS011;1916;51.798;12.246;2023-06-22T01:39:19;15.20;;;13.30;;
3801;SDS011;1916;51.798;12.246;2023-06-22T01:41:27;14.47;;;13.07;;
3801;SDS011;1916;51.798;12.246;2023-06-22T01:43:30;14.53;;;13.07;;
3801;SDS011;1916;51.798;12.246;2023-06-22T01:45:33;15.43;;;13.83;;
3801;SDS011;1916;51.798;12.246;2023-06-22T01:47:35;15.70;;;14.20;;
3801;SDS011;1916;51.798;12.246;2023-06-22T01:49:37;14.93;;;13.53;;
3801;SDS011;1916;51.798;12.246;2023-06-22T01:51:39;13.93;;;12.60;;
3801;SDS011;1916;51.798;12.246;2023-06-22T01:53:41;14.70;;;13.37;;
3801;SDS011;1916;51.798;12.246;2023-06-22T01:55:44;18.60;;;13.33;;
3801;SDS011;1916;51.798;12.246;2023-06-22T01:57:46;16.17;;;14.03;;
3801;SDS011;1916;51.798;12.246;2023-06-22T01:59:50;14.70;;;13.30;;
3801;SDS011;1916;51.798;12.246;2023-06-22T02:02:02;17.20;;;13.30;;
3801;SDS011;1916;51.798;12.246;2023-06-22T02:04:19;15.10;;;13.60;;
3801;SDS011;1916;51.798;12.246;2023-06-22T02:06:24;15.53;;;14.00;;
3801;SDS011;1916;51.798;12.246;2023-06-22T02:08:30;14.70;;;13.30;;
3801;SDS011;1916;51.798;12.246;2023-06-22T02:10:42;15.10;;;13.70;;
3801;SDS011;1916;51.798;12.246;2023-06-22T02:12:45;15.87;;;14.03;;
3801;SDS011;1916;51.798;12.246;2023-06-22T02:14:48;13.77;;;12.47;;
3801;SDS011;1916;51.798;12.246;2023-06-22T02:16:51;17.07;;;14.03;;
3801;SDS011;1916;51.798;12.246;2023-06-22T02:18:53;14.77;;;13.27;;
3801;SDS011;1916;51.798;12.246;2023-06-22T02:20:55;15.10;;;13.60;;
3801;SDS011;1916;51.798;12.246;2023-06-22T02:22:57;14.73;;;13.23;;
3801;SDS011;1916;51.798;12.246;2023-06-22T02:25:00;16.00;;;14.33;;
3801;SDS011;1916;51.798;12.246;2023-06-22T02:27:02;15.07;;;13.53;;
3801;SDS011;1916;51.798;12.246;2023-06-22T02:29:06;17.23;;;13.90;;
3801;SDS011;1916;51.798;12.246;2023-06-22T02:31:08;15.47;;;13.87;;
3801;SDS011;1916;51.798;12.246;2023-06-22T02:33:11;16.20;;;14.47;;
3801;SDS011;1916;51.798;12.246;2023-06-22T02:35:13;16.33;;;14.73;;
3801;SDS011;1916;51.798;12.246;2023-06-22T02:37:15;17.80;;;15.57;;
3801;SDS011;1916;51.798;12.246;2023-06-22T02:39:21;15.47;;;13.93;;
3801;SDS011;1916;51.798;12.246;2023-06-22T02:41:24;18.03;;;16.03;;
3801;SDS011;1916;51.798;12.246;2023-06-22T02:43:26;16.60;;;15.00;;
3801;SDS011;1916;51.798;12.246;2023-06-22T02:45:29;16.40;;;14.77;;
3801;SDS011;1916;51.798;12.246;2023-06-22T02:47:31;17.17;;;15.37;;
3801;SDS011;1916;51.798;12.246;2023-06-22T02:49:34;18.53;;;16.10;;
3801;SDS011;1916;51.798;12.246;2023-06-22T02:51:41;17.90;;;16.20;;
3801;SDS011;1916;51.798;12.246;2023-06-22T02:53:47;18.27;;;16.47;;
3801;SDS011;1916;51.798;12.246;2023-06-22T02:55:50;17.30;;;15.50;;
3801;SDS011;1916;51.798;12.246;2023-06-22T02:57:52;15.90;;;14.30;;
3801;SDS011;1916;51.798;12.246;2023-06-22T02:59:55;17.50;;;15.70;;
3801;SDS011;1916;51.798;12.246;2023-06-22T03:01:58;18.83;;;16.83;;
3801;SDS011;1916;51.798;12.246;2023-06-22T03:04:04;18.33;;;16.43;;
3801;SDS011;1916;51.798;12.246;2023-06-22T03:06:06;19.90;;;17.30;;
3801;SDS011;1916;51.798;12.246;2023-06-22T03:08:08;18.40;;;15.93;;
3801;SDS011;1916;51.798;12.246;2023-06-22T03:10:11;21.20;;;16.57;;
3801;SDS011;1916;51.798;12.246;2023-06-22T03:12:14;18.43;;;16.57;;
3801;SDS011;1916;51.798;12.246;2023-06-22T03:14:26;19.43;;;16.53;;
3801;SDS011;1916;51.798;12.246;2023-06-22T03:16:28;18.80;;;16.83;;
3801;SDS011;1916;51.798;12.246;2023-06-22T03:18:32;18.17;;;16.30;;
3801;SDS011;1916;51.798;12.246;2023-06-22T03:20:34;17.83;;;15.93;;
3801;SDS011;1916;51.798;12.246;2023-06-22T03:22:36;18.70;;;16.43;;
3801;SDS011;1916;51.798;12.246;2023-06-22T03:24:40;18.57;;;16.17;;
3801;SDS011;1916;51.798;12.246;2023-06-22T03:26:42;18.20;;;16.00;;
3801;SDS011;1916;51.798;12.246;2023-06-22T03:28:44;19.03;;;17.03;;
3801;SDS011;1916;51.798;12.246;2023-06-22T03:30:46;19.23;;;17.23;;
3801;SDS011;1916;51.798;12.246;2023-06-22T03:32:48;17.73;;;15.83;;
3801;SDS011;1916;51.798;12.246;2023-06-22T03:34:50;18.10;;;16.20;;
3801;SDS011;1916;51.798;12.246;2023-06-22T03:36:53;18.30;;;16.47;;
3801;SDS011;1916;51.798;12.246;2023-06-22T03:38:56;20.27;;;16.43;;
3801;SDS011;1916;51.798;12.246;2023-06-22T03:40:59;18.90;;;16.70;;
3801;SDS011;1916;51.798;12.246;2023-06-22T03:43:01;17.90;;;16.10;;
3801;SDS011;1916;51.798;12.246;2023-06-22T03:45:04;19.73;;;16.77;;
3801;SDS011;1916;51.798;12.246;2023-06-22T03:47:08;18.47;;;16.53;;
3801;SDS011;1916;51.798;12.246;2023-06-22T03:49:11;19.77;;;16.80;;
3801;SDS011;1916;51.798;12.246;2023-06-22T03:51:15;17.87;;;15.97;;
3801;SDS011;1916;51.798;12.246;2023-06-22T03:53:17;19.40;;;16.30;;
3801;SDS011;1916;51.798;12.246;2023-06-22T03:55:20;17.67;;;15.80;;
3801;SDS011;1916;51.798;12.246;2023-06-22T03:57:22;22.53;;;16.27;;
3801;SDS011;1916;51.798;12.246;2023-06-22T03:59:24;20.57;;;17.80;;
3801;SDS011;1916;51.798;12.246;2023-06-22T04:01:26;21.50;;;17.40;;
3801;SDS011;1916;51.798;12.246;2023-06-22T04:03:28;18.67;;;16.77;;
3801;SDS011;1916;51.798;12.246;2023-06-22T04:05:31;18.43;;;16.43;;
3801;SDS011;1916;51.798;12.246;2023-06-22T04:07:33;21.30;;;16.20;;
3801;SDS011;1916;51.798;12.246;2023-06-22T04:09:35;19.10;;;16.60;;
3801;SDS011;1916;51.798;12.246;2023-06-22T04:11:37;18.90;;;16.83;;
3801;SDS011;1916;51.798;12.246;2023-06-22T04:13:39;17.10;;;15.40;;
3801;SDS011;1916;51.798;12.246;2023-06-22T04:15:41;17.43;;;15.73;;
3801;SDS011;1916;51.798;12.246;2023-06-22T04:17:43;16.67;;;14.97;;
3801;SDS011;1916;51.798;12.246;2023-06-22T04:19:45;18.33;;;16.47;;
3801;SDS011;1916;51.798;12.246;2023-06-22T04:21:47;18.90;;;16.97;;
3801;SDS011;1916;51.798;12.246;2023-06-22T04:23:50;18.23;;;16.37;;
3801;SDS011;1916;51.798;12.246;2023-06-22T04:25:52;19.73;;;16.47;;
3801;SDS011;1916;51.798;12.246;2023-06-22T04:27:54;19.70;;;16.33;;
3801;SDS011;1916;51.798;12.246;2023-06-22T04:29:57;20.30;;;16.77;;
3801;SDS011;1916;51.798;12.246;2023-06-22T04:32:02;19.90;;;17.40;;
3801;SDS011;1916;51.798;12.246;2023-06-22T04:34:07;20.40;;;16.97;;
3801;SDS011;1916;51.798;12.246;2023-06-22T04:36:09;21.60;;;16.60;;
3801;SDS011;1916;51.798;12.246;2023-06-22T04:38:15;17.40;;;15.60;;
3801;SDS011;1916;51.798;12.246;2023-06-22T04:40:17;19.27;;;17.20;;
3801;SDS011;1916;51.798;12.246;2023-06-22T04:42:19;19.93;;;17.50;;
3801;SDS011;1916;51.798;12.246;2023-06-22T04:44:21;20.60;;;17.37;;
3801;SDS011;1916;51.798;12.246;2023-06-22T04:46:26;18.73;;;16.80;;
3801;SDS011;1916;51.798;12.246;2023-06-22T04:48:29;20.47;;;17.30;;
3801;SDS011;1916;51.798;12.246;2023-06-22T04:50:35;20.70;;;16.90;;
3801;SDS011;1916;51.798;12.246;2023-06-22T04:52:40;17.60;;;15.80;;
3801;SDS011;1916;51.798;12.246;2023-06-22T04:54:42;20.40;;;16.33;;
3801;SDS011;1916;51.798;12.246;2023-06-22T04:56:52;19.33;;;15.50;;
3801;SDS011;1916;51.798;12.246;2023-06-22T04:59:00;19.20;;;17.20;;
3801;SDS011;1916;51.798;12.246;2023-06-22T05:01:03;21.23;;;17.37;;
3801;SDS011;1916;51.798;12.246;2023-06-22T05:03:05;19.80;;;16.40;;
3801;SDS011;1916;51.798;12.246;2023-06-22T05:05:20;18.00;;;16.10;;
3801;SDS011;1916;51.798;12.246;2023-06-22T05:07:23;18.37;;;16.37;;
3801;SDS011;1916;51.798;12.246;2023-06-22T05:09:27;20.00;;;17.60;;
3801;SDS011;1916;51.798;12.246;2023-06-22T05:11:29;22.73;;;17.40;;
3801;SDS011;1916;51.798;12.246;2023-06-22T05:13:32;22.77;;;16.03;;
3801;SDS011;1916;51.798;12.246;2023-06-22T05:15:34;23.47;;;17.90;;
3801;SDS011;1916;51.798;12.246;2023-06-22T05:17:41;18.83;;;16.30;;
3801;SDS011;1916;51.798;12.246;2023-06-22T05:19:49;21.40;;;17.00;;
3801;SDS011;1916;51.798;12.246;2023-06-22T05:21:51;19.67;;;17.60;;
3801;SDS011;1916;51.798;12.246;2023-06-22T05:23:54;19.50;;;17.43;;
3801;SDS011;1916;51.798;12.246;2023-06-22T05:25:56;24.53;;;16.97;;
3801;SDS011;1916;51.798;12.246;2023-06-22T05:28:00;17.37;;;15.37;;
3801;SDS011;1916;51.798;12.246;2023-06-22T05:30:02;20.53;;;16.60;;
3801;SDS011;1916;51.798;12.246;2023-06-22T05:32:04;20.97;;;17.47;;
3801;SDS011;1916;51.798;12.246;2023-06-22T05:34:06;20.30;;;18.10;;
3801;SDS011;1916;51.798;12.246;2023-06-22T05:36:09;20.93;;;17.20;;
3801;SDS011;1916;51.798;12.246;2023-06-22T05:38:11;22.67;;;17.97;;
3801;SDS011;1916;51.798;12.246;2023-06-22T05:40:13;19.13;;;17.23;;
3801;SDS011;1916;51.798;12.246;2023-06-22T05:42:16;19.23;;;17.23;;
3801;SDS011;1916;51.798;12.246;2023-06-22T05:44:18;20.70;;;17.20;;
3801;SDS011;1916;51.798;12.246;2023-06-22T05:46:20;20.77;;;18.67;;
3801;SDS011;1916;51.798;12.246;2023-06-22T05:48:22;19.13;;;16.90;;
3801;SDS011;1916;51.798;12.246;2023-06-22T05:50:24;19.40;;;17.40;;
3801;SDS011;1916;51.798;12.246;2023-06-22T05:52:26;19.00;;;17.07;;
3801;SDS011;1916;51.798;12.246;2023-06-22T05:54:28;20.23;;;18.00;;
3801;SDS011;1916;51.798;12.246;2023-06-22T05:56:30;20.07;;;18.00;;
3801;SDS011;1916;51.798;12.246;2023-06-22T05:58:33;20.93;;;18.77;;
3801;SDS011;1916;51.798;12.246;2023-06-22T06:00:35;19.90;;;17.80;;
3801;SDS011;1916;51.798;12.246;2023-06-22T06:02:37;23.03;;;18.60;;
3801;SDS011;1916;51.798;12.246;2023-06-22T06:04:45;19.10;;;17.10;;
3801;SDS011;1916;51.798;12.246;2023-06-22T06:06:48;23.10;;;17.90;;
3801;SDS011;1916;51.798;12.246;2023-06-22T06:08:50;20.20;;;17.50;;
3801;SDS011;1916;51.798;12.246;2023-06-22T06:10:52;20.00;;;17.90;;
3801;SDS011;1916;51.798;12.246;2023-06-22T06:12:55;19.53;;;17.53;;
3801;SDS011;1916;51.798;12.246;2023-06-22T06:14:58;20.30;;;18.30;;
3801;SDS011;1916;51.798;12.246;2023-06-22T06:17:00;18.83;;;16.97;;
3801;SDS011;1916;51.798;12.246;2023-06-22T06:19:02;18.83;;;16.83;;
3801;SDS011;1916;51.798;12.246;2023-06-22T06:21:04;20.60;;;18.53;;
3801;SDS011;1916;51.798;12.246;2023-06-22T06:23:06;19.80;;;17.80;;
3801;SDS011;1916;51.798;12.246;2023-06-22T06:25:08;20.10;;;18.20;;
3801;SDS011;1916;51.798;12.246;2023-06-22T06:27:11;18.90;;;17.00;;
3801;SDS011;1916;51.798;12.246;2023-06-22T06:29:13;19.00;;;16.83;;
3801;SDS011;1916;51.798;12.246;2023-06-22T06:31:18;19.63;;;17.10;;
3801;SDS011;1916;51.798;12.246;2023-06-22T06:33:20;19.20;;;17.37;;
3801;SDS011;1916;51.798;12.246;2023-06-22T06:35:25;17.80;;;16.00;;
3801;SDS011;1916;51.798;12.246;2023-06-22T06:37:28;18.90;;;17.00;;
3801;SDS011;1916;51.798;12.246;2023-06-22T06:39:30;19.43;;;17.43;;
3801;SDS011;1916;51.798;12.246;2023-06-22T06:41:32;17.53;;;15.83;;
3801;SDS011;1916;51.798;12.246;2023-06-22T06:43:35;19.10;;;16.50;;
3801;SDS011;1916;51.798;12.246;2023-06-22T06:45:37;17.77;;;16.00;;
3801;SDS011;1916;51.798;12.246;2023-06-22T06:47:39;18.70;;;16.77;;
3801;SDS011;1916;51.798;12.246;2023-06-22T06:49:41;17.37;;;15.57;;
3801;SDS011;1916;51.798;12.246;2023-06-22T06:51:44;17.43;;;15.63;;
3801;SDS011;1916;51.798;12.246;2023-06-22T06:53:46;19.80;;;16.30;;
3801;SDS011;1916;51.798;12.246;2023-06-22T06:55:48;18.57;;;16.73;;
3801;SDS011;1916;51.798;12.246;2023-06-22T06:57:50;22.33;;;17.80;;
3801;SDS011;1916;51.798;12.246;2023-06-22T06:59:55;17.20;;;15.40;;
3801;SDS011;1916;51.798;12.246;2023-06-22T07:01:58;18.20;;;16.30;;
3801;SDS011;1916;51.798;12.246;2023-06-22T07:04:00;18.93;;;16.93;;
3801;SDS011;1916;51.798;12.246;2023-06-22T07:06:03;18.00;;;16.10;;
3801;SDS011;1916;51.798;12.246;2023-06-22T07:08:05;17.67;;;16.07;;
3801;SDS011;1916;51.798;12.246;2023-06-22T07:10:08;18.73;;;16.33;;
3801;SDS011;1916;51.798;12.246;2023-06-22T07:12:10;19.37;;;16.83;;
3801;SDS011;1916;51.798;12.246;2023-06-22T07:14:12;19.00;;;17.20;;
3801;SDS011;1916;51.798;12.246;2023-06-22T07:16:14;18.20;;;16.43;;
3801;SDS011;1916;51.798;12.246;2023-06-22T07:18:16;17.47;;;15.77;;
3801;SDS011;1916;51.798;12.246;2023-06-22T07:20:18;28.53;;;24.60;;
3801;SDS011;1916;51.798;12.246;2023-06-22T07:22:21;24.93;;;22.30;;
3801;SDS011;1916;51.798;12.246;2023-06-22T07:24:23;20.87;;;18.67;;
3801;SDS011;1916;51.798;12.246;2023-06-22T07:26:26;19.47;;;17.40;;
3801;SDS011;1916;51.798;12.246;2023-06-22T07:28:28;19.47;;;17.50;;
3801;SDS011;1916;51.798;12.246;2023-06-22T07:30:33;18.43;;;16.73;;
3801;SDS011;1916;51.798;12.246;2023-06-22T07:32:36;17.70;;;15.83;;
3801;SDS011;1916;51.798;12.246;2023-06-22T07:34:38;19.10;;;17.17;;
3801;SDS011;1916;51.798;12.246;2023-06-22T07:36:40;18.00;;;16.17;;
3801;SDS011;1916;51.798;12.246;2023-06-22T07:38:42;16.80;;;15.13;;
3801;SDS011;1916;51.798;12.246;2023-06-22T07:40:45;16.77;;;15.07;;
3801;SDS011;1916;51.798;12.246;2023-06-22T07:42:47;19.53;;;16.67;;
3801;SDS011;1916;51.798;12.246;2023-06-22T07:44:54;19.37;;;16.73;;
3801;SDS011;1916;51.798;12.246;2023-06-22T07:46:56;17.17;;;15.37;;
3801;SDS011;1916;51.798;12.246;2023-06-22T07:48:59;16.43;;;14.73;;
3801;SDS011;1916;51.798;12.246;2023-06-22T07:51:01;16.83;;;15.10;;
3801;SDS011;1916;51.798;12.246;2023-06-22T07:53:03;17.50;;;15.70;;
3801;SDS011;1916;51.798;12.246;2023-06-22T07:55:05;16.37;;;14.83;;
3801;SDS011;1916;51.798;12.246;2023-06-22T07:57:08;18.93;;;17.07;;
3801;SDS011;1916;51.798;12.246;2023-06-22T07:59:10;18.33;;;14.97;;
3801;SDS011;1916;51.798;12.246;2023-06-22T08:01:12;18.03;;;16.13;;
3801;SDS011;1916;51.798;12.246;2023-06-22T08:03:15;18.53;;;15.03;;
3801;SDS011;1916;51.798;12.246;2023-06-22T08:05:18;17.73;;;16.03;;
3801;SDS011;1916;51.798;12.246;2023-06-22T08:07:23;16.10;;;14.50;;
3801;SDS011;1916;51.798;12.246;2023-06-22T08:09:27;17.40;;;15.80;;
3801;SDS011;1916;51.798;12.246;2023-06-22T08:11:30;17.47;;;15.80;;
3801;SDS011;1916;51.798;12.246;2023-06-22T08:13:32;18.60;;;16.27;;
3801;SDS011;1916;51.798;12.246;2023-06-22T08:15:35;19.70;;;17.60;;
3801;SDS011;1916;51.798;12.246;2023-06-22T08:17:37;17.77;;;15.97;;
3801;SDS011;1916;51.798;12.246;2023-06-22T08:19:40;18.07;;;16.17;;
3801;SDS011;1916;51.798;12.246;2023-06-22T08:21:43;17.30;;;15.50;;
3801;SDS011;1916;51.798;12.246;2023-06-22T08:23:45;18.47;;;16.53;;
3801;SDS011;1916;51.798;12.246;2023-06-22T08:25:47;15.90;;;14.50;;
3801;SDS011;1916;51.798;12.246;2023-06-22T08:27:51;19.47;;;17.60;;
3801;SDS011;1916;51.798;12.246;2023-06-22T08:29:53;22.53;;;15.53;;
3801;SDS011;1916;51.798;12.246;2023-06-22T08:31:59;17.73;;;16.00;;
3801;SDS011;1916;51.798;12.246;2023-06-22T08:34:02;17.13;;;15.53;;
3801;SDS011;1916;51.798;12.246;2023-06-22T08:36:04;17.53;;;15.87;;
3801;SDS011;1916;51.798;12.246;2023-06-22T08:38:07;16.97;;;15.00;;
3801;SDS011;1916;51.798;12.246;2023-06-22T08:40:10;18.13;;;15.67;;
3801;SDS011;1916;51.798;12.246;2023-06-22T08:42:13;16.30;;;14.67;;
3801;SDS011;1916;51.798;12.246;2023-06-22T08:44:17;16.23;;;14.80;;
3801;SDS011;1916;51.798;12.246;2023-06-22T08:46:20;16.23;;;14.70;;
3801;SDS011;1916;51.798;12.246;2023-06-22T08:48:25;16.97;;;15.40;;
3801;SDS011;1916;51.798;12.246;2023-06-22T08:50:27;15.63;;;14.23;;
3801;SDS011;1916;51.798;12.246;2023-06-22T08:52:29;16.67;;;14.93;;
3801;SDS011;1916;51.798;12.246;2023-06-22T08:54:31;15.00;;;13.33;;
3801;SDS011;1916;51.798;12.246;2023-06-22T08:56:36;15.30;;;13.70;;
3801;SDS011;1916;51.798;12.246;2023-06-22T08:58:38;15.33;;;13.97;;
3801;SDS011;1916;51.798;12.246;2023-06-22T09:00:40;14.67;;;13.17;;
3801;SDS011;1916;51.798;12.246;2023-06-22T09:02:43;15.50;;;14.00;;
3801;SDS011;1916;51.798;12.246;2023-06-22T09:04:46;17.43;;;15.17;;
3801;SDS011;1916;51.798;12.246;2023-06-22T09:06:48;15.13;;;13.77;;
3801;SDS011;1916;51.798;12.246;2023-06-22T09:08:51;15.83;;;12.87;;
3801;SDS011;1916;51.798;12.246;2023-06-22T09:10:53;15.97;;;13.43;;
3801;SDS011;1916;51.798;12.246;2023-06-22T09:12:56;15.60;;;13.43;;
3801;SDS011;1916;51.798;12.246;2023-06-22T09:14:59;14.90;;;13.60;;
3801;SDS011;1916;51.798;12.246;2023-06-22T09:17:02;15.17;;;13.60;;
3801;SDS011;1916;51.798;12.246;2023-06-22T09:19:04;15.20;;;13.70;;
3801;SDS011;1916;51.798;12.246;2023-06-22T09:21:07;16.97;;;14.90;;
3801;SDS011;1916;51.798;12.246;2023-06-22T09:23:09;15.13;;;13.73;;
3801;SDS011;1916;51.798;12.246;2023-06-22T09:25:11;15.80;;;13.87;;
3801;SDS011;1916;51.798;12.246;2023-06-22T09:27:14;16.13;;;14.43;;
3801;SDS011;1916;51.798;12.246;2023-06-22T09:29:16;14.43;;;13.03;;
3801;SDS011;1916;51.798;12.246;2023-06-22T09:31:18;13.63;;;12.33;;
3801;SDS011;1916;51.798;12.246;2023-06-22T09:33:27;15.47;;;13.90;;
3801;SDS011;1916;51.798;12.246;2023-06-22T09:35:29;14.80;;;13.50;;
3801;SDS011;1916;51.798;12.246;2023-06-22T09:37:31;16.70;;;13.37;;
3801;SDS011;1916;51.798;12.246;2023-06-22T09:39:33;13.20;;;11.73;;
3801;SDS011;1916;51.798;12.246;2023-06-22T09:41:35;12.23;;;11.13;;
3801;SDS011;1916;51.798;12.246;2023-06-22T09:43:38;12.57;;;11.37;;
3801;SDS011;1916;51.798;12.246;2023-06-22T09:45:40;11.60;;;10.50;;
3801;SDS011;1916;51.798;12.246;2023-06-22T09:47:43;11.60;;;10.60;;
3801;SDS011;1916;51.798;12.246;2023-06-22T09:49:46;11.97;;;10.77;;
3801;SDS011;1916;51.798;12.246;2023-06-22T09:51:49;12.40;;;11.17;;
3801;SDS011;1916;51.798;12.246;2023-06-22T09:53:52;11.80;;;10.77;;
3801;SDS011;1916;51.798;12.246;2023-06-22T09:55:57;12.90;;;11.27;;
3801;SDS011;1916;51.798;12.246;2023-06-22T09:58:00;13.03;;;11.50;;
3801;SDS011;1916;51.798;12.246;2023-06-22T10:00:02;12.67;;;11.50;;
3801;SDS011;1916;51.798;12.246;2023-06-22T10:02:09;11.83;;;10.63;;
3801;SDS011;1916;51.798;12.246;2023-06-22T10:04:11;12.13;;;11.13;;
3801;SDS011;1916;51.798;12.246;2023-06-22T10:06:14;13.70;;;10.43;;
3801;SDS011;1916;51.798;12.246;2023-06-22T10:08:17;12.03;;;10.77;;
3801;SDS011;1916;51.798;12.246;2023-06-22T10:10:19;13.03;;;11.07;;
3801;SDS011;1916;51.798;12.246;2023-06-22T10:12:21;12.43;;;11.13;;
3801;SDS011;1916;51.798;12.246;2023-06-22T10:14:23;14.33;;;10.70;;
3801;SDS011;1916;51.798;12.246;2023-06-22T10:16:32;14.37;;;10.80;;
3801;SDS011;1916;51.798;12.246;2023-06-22T10:18:35;11.33;;;10.33;;
3801;SDS011;1916;51.798;12.246;2023-06-22T10:20:37;14.10;;;11.40;;
3801;SDS011;1916;51.798;12.246;2023-06-22T10:22:40;10.57;;;9.47;;
3801;SDS011;1916;51.798;12.246;2023-06-22T10:24:45;10.90;;;9.90;;
3801;SDS011;1916;51.798;12.246;2023-06-22T10:26:47;12.57;;;10.53;;
3801;SDS011;1916;51.798;12.246;2023-06-22T10:28:49;11.00;;;10.00;;
3801;SDS011;1916;51.798;12.246;2023-06-22T10:31:08;11.97;;;10.83;;
3801;SDS011;1916;51.798;12.246;2023-06-22T10:33:10;10.93;;;9.93;;
3801;SDS011;1916;51.798;12.246;2023-06-22T10:35:13;11.10;;;10.10;;
3801;SDS011;1916;51.798;12.246;2023-06-22T10:37:17;10.50;;;9.50;;
3801;SDS011;1916;51.798;12.246;2023-06-22T10:39:20;11.07;;;10.07;;
3801;SDS011;1916;51.798;12.246;2023-06-22T10:41:22;10.30;;;9.30;;
3801;SDS011;1916;51.798;12.246;2023-06-22T10:43:24;9.97;;;9.17;;
3801;SDS011;1916;51.798;12.246;2023-06-22T10:45:26;11.13;;;10.03;;
3801;SDS011;1916;51.798;12.246;2023-06-22T10:47:30;10.93;;;9.77;;
3801;SDS011;1916;51.798;12.246;2023-06-22T10:49:32;11.80;;;9.43;;
3801;SDS011;1916;51.798;12.246;2023-06-22T10:51:34;9.53;;;8.63;;
3801;SDS011;1916;51.798;12.246;2023-06-22T10:53:36;10.80;;;9.70;;
3801;SDS011;1916;51.798;12.246;2023-06-22T10:55:39;10.60;;;9.70;;
3801;SDS011;1916;51.798;12.246;2023-06-22T10:57:47;9.10;;;8.20;;
3801;SDS011;1916;51.798;12.246;2023-06-22T10:59:50;9.33;;;8.40;;
3801;SDS011;1916;51.798;12.246;2023-06-22T11:01:52;9.63;;;8.83;;
3801;SDS011;1916;51.798;12.246;2023-06-22T11:03:55;10.83;;;9.80;;
3801;SDS011;1916;51.798;12.246;2023-06-22T11:05:57;10.20;;;9.10;;
3801;SDS011;1916;51.798;12.246;2023-06-22T11:07:59;9.93;;;8.97;;
3801;SDS011;1916;51.798;12.246;2023-06-22T11:10:02;8.83;;;8.03;;
3801;SDS011;1916;51.798;12.246;2023-06-22T11:12:04;8.90;;;8.03;;
3801;SDS011;1916;51.798;12.246;2023-06-22T11:14:07;11.53;;;9.27;;
3801;SDS011;1916;51.798;12.246;2023-06-22T11:16:09;11.60;;;8.83;;
3801;SDS011;1916;51.798;12.246;2023-06-22T11:18:12;10.57;;;9.40;;
3801;SDS011;1916;51.798;12.246;2023-06-22T11:20:14;11.70;;;9.87;;
3801;SDS011;1916;51.798;12.246;2023-06-22T11:22:17;13.00;;;9.70;;
3801;SDS011;1916;51.798;12.246;2023-06-22T11:24:19;10.20;;;9.30;;
3801;SDS011;1916;51.798;12.246;2023-06-22T11:26:21;11.00;;;9.57;;
3801;SDS011;1916;51.798;12.246;2023-06-22T11:28:23;11.23;;;9.83;;
3801;SDS011;1916;51.798;12.246;2023-06-22T11:30:26;10.83;;;9.93;;
3801;SDS011;1916;51.798;12.246;2023-06-22T11:32:29;13.30;;;10.00;;
3801;SDS011;1916;51.798;12.246;2023-06-22T11:34:32;10.80;;;9.70;;
3801;SDS011;1916;51.798;12.246;2023-06-22T11:36:34;13.80;;;10.10;;
3801;SDS011;1916;51.798;12.246;2023-06-22T11:38:37;11.17;;;10.17;;
3801;SDS011;1916;51.798;12.246;2023-06-22T11:40:40;11.40;;;10.40;;
3801;SDS011;1916;51.798;12.246;2023-06-22T11:42:43;11.43;;;10.43;;
3801;SDS011;1916;51.798;12.246;2023-06-22T11:44:45;11.53;;;10.43;;
3801;SDS011;1916;51.798;12.246;2023-06-22T11:46:47;12.50;;;10.37;;
3801;SDS011;1916;51.798;12.246;2023-06-22T11:48:50;12.07;;;10.20;;
3801;SDS011;1916;51.798;12.246;2023-06-22T11:50:52;10.70;;;9.70;;
3801;SDS011;1916;51.798;12.246;2023-06-22T11:52:54;10.53;;;9.50;;
3801;SDS011;1916;51.798;12.246;2023-06-22T11:54:56;11.20;;;10.20;;
3801;SDS011;1916;51.798;12.246;2023-06-22T11:56:58;10.43;;;9.57;;
3801;SDS011;1916;51.798;12.246;2023-06-22T11:59:01;11.40;;;9.70;;
3801;SDS011;1916;51.798;12.246;2023-06-22T12:01:03;11.50;;;10.33;;
3801;SDS011;1916;51.798;12.246;2023-06-22T12:03:05;12.13;;;10.90;;
3801;SDS011;1916;51.798;12.246;2023-06-22T12:05:07;11.57;;;10.47;;
3801;SDS011;1916;51.798;12.246;2023-06-22T12:07:10;11.70;;;10.60;;
3801;SDS011;1916;51.798;12.246;2023-06-22T12:09:12;11.50;;;10.30;;
3801;SDS011;1916;51.798;12.246;2023-06-22T12:11:15;11.90;;;10.80;;
3801;SDS011;1916;51.798;12.246;2023-06-22T12:13:17;10.07;;;9.10;;
3801;SDS011;1916;51.798;12.246;2023-06-22T12:15:20;11.00;;;9.90;;
3801;SDS011;1916;51.798;12.246;2023-06-22T12:17:22;12.40;;;10.03;;
3801;SDS011;1916;51.798;12.246;2023-06-22T12:19:24;12.80;;;10.70;;